Terminal Aerodrome Forecast
Issued by NWS Charleston, SC

Home | Current Version | Previous Version | Text Only | Print | Product List | Glossary On
Versions: 1 2 3 4 5 6 7 8 9 10 11 12 13 14 15 16 17 18 19 20
000
FTUS42 KCHS 310538
TAFSAV
TAF
KSAV 310538Z 3106/0106 07008KT P6SM SCT040 SCT120
     FM310900 05007KT P6SM VCSH SCT030 BKN050
     FM311500 07011KT P6SM VCSH OVC035 PROB30 3115/3119 TSRA
      BKN025CB
     FM312300 VRB03KT P6SM BKN250=

USA.gov is the U.S. government's official web portal to all federal, state and local government web resources and services.